Portada
METAR-TAF:

METAR-TAF

Aeroports :

Boscombe Down, Anglaterra

latitud: 51-10N, longitud: 001-45W, altitud: 124 m

Observació

L'informe es va fer fa 59 minuts, a les 22:50 UTC
Vent 9 kt del Oest/Sud-Oest
Temperatura 11°C
Humitat 87%
Pressió 1000 hPa

METAR: EGDM 042250Z AUTO 25009KT //// FEW009/// BKN012/// BKN070/// 11/09 Q1000

Hora: 00:49 (23:49 UTC)

Pronòstic

L'informe es va fer fa 13 hores i 34 minuts, a les 10:15 UTC
Pronòstic vàlid del 04 a les 12 UTC al 04 a les 16 UTC
Vent 10 kt del Oest/Nord-Oest
Visibilitat 10 km o més
Cel ennuvolat a una alçada de 4000 ft
Probabilitat 30% :
Temporalment
l' 04 a les 12 UTC al 04 a les 16 UTC
Visibilitat: 7000 m
Núvols disperses a una alçada de 2000 ft
xàfecs de pluja

TAF: EGDM 041015Z 0412/0416 30010KT 9999 BKN040 PROB30 TEMPO 0412/0416 7000 -SHRA SCT020

Observacions i pronòstics meteorològics de més de 4000 aeroports (METAR i TAF).

Les estacions disponibles són els punts grocs i vermells al mapa.

Posi el ratolí al punt desitjat per veure el nom de l'estació.

Feu clic per veure les observacions i els pronòstics meteorològics.

Per canviar el mapa: feu clic els botons verds amb una creu de color negre per apropar; al botó verd amb un guió per allunyar la imatge; o en les fletxes verdes per a mapes adjacents.


METAR-TAF: